sensor_id;sensor_type;location;lat;lon;timestamp;P1;durP1;ratioP1;P2;durP2;ratioP2
29838;SDS011;18669;53.356;-1.464;2023-03-31T00:01:45;23.20;;;3.40;;
29838;SDS011;18669;53.356;-1.464;2023-03-31T00:04:30;23.92;;;3.72;;
29838;SDS011;18669;53.356;-1.464;2023-03-31T00:07:15;24.65;;;4.13;;
29838;SDS011;18669;53.356;-1.464;2023-03-31T00:10:00;24.42;;;3.95;;
29838;SDS011;18669;53.356;-1.464;2023-03-31T00:12:45;24.80;;;3.83;;
29838;SDS011;18669;53.356;-1.464;2023-03-31T00:15:30;29.55;;;4.05;;
29838;SDS011;18669;53.356;-1.464;2023-03-31T00:18:14;18.90;;;3.97;;
29838;SDS011;18669;53.356;-1.464;2023-03-31T00:21:07;23.90;;;4.35;;
29838;SDS011;18669;53.356;-1.464;2023-03-31T00:23:58;19.77;;;3.50;;
29838;SDS011;18669;53.356;-1.464;2023-03-31T00:26:45;23.10;;;3.45;;
29838;SDS011;18669;53.356;-1.464;2023-03-31T00:29:30;15.88;;;2.90;;
29838;SDS011;18669;53.356;-1.464;2023-03-31T00:32:17;19.23;;;3.15;;
29838;SDS011;18669;53.356;-1.464;2023-03-31T00:35:01;17.75;;;3.53;;
29838;SDS011;18669;53.356;-1.464;2023-03-31T00:37:47;19.35;;;3.25;;
29838;SDS011;18669;53.356;-1.464;2023-03-31T00:40:32;18.65;;;3.10;;
29838;SDS011;18669;53.356;-1.464;2023-03-31T00:46:21;17.23;;;3.30;;
29838;SDS011;18669;53.356;-1.464;2023-03-31T00:52:02;22.03;;;3.60;;
29838;SDS011;18669;53.356;-1.464;2023-03-31T00:55:09;18.08;;;3.38;;
29838;SDS011;18669;53.356;-1.464;2023-03-31T00:58:00;16.52;;;3.05;;
29838;SDS011;18669;53.356;-1.464;2023-03-31T01:00:46;13.90;;;2.70;;
29838;SDS011;18669;53.356;-1.464;2023-03-31T01:03:32;18.30;;;3.17;;
29838;SDS011;18669;53.356;-1.464;2023-03-31T01:06:17;21.98;;;3.30;;
29838;SDS011;18669;53.356;-1.464;2023-03-31T01:09:03;17.20;;;3.10;;
29838;SDS011;18669;53.356;-1.464;2023-03-31T01:11:50;16.17;;;2.60;;
29838;SDS011;18669;53.356;-1.464;2023-03-31T01:14:35;16.45;;;3.05;;
29838;SDS011;18669;53.356;-1.464;2023-03-31T01:17:20;17.00;;;3.03;;
29838;SDS011;18669;53.356;-1.464;2023-03-31T01:41:15;16.58;;;3.45;;
29838;SDS011;18669;53.356;-1.464;2023-03-31T01:44:23;11.18;;;2.72;;
29838;SDS011;18669;53.356;-1.464;2023-03-31T01:47:18;22.40;;;3.88;;
29838;SDS011;18669;53.356;-1.464;2023-03-31T01:53:05;18.77;;;3.80;;
29838;SDS011;18669;53.356;-1.464;2023-03-31T01:58:49;18.35;;;3.08;;
29838;SDS011;18669;53.356;-1.464;2023-03-31T02:04:28;18.10;;;2.90;;
29838;SDS011;18669;53.356;-1.464;2023-03-31T02:07:23;18.15;;;3.22;;
29838;SDS011;18669;53.356;-1.464;2023-03-31T02:10:15;19.23;;;3.25;;
29838;SDS011;18669;53.356;-1.464;2023-03-31T02:13:02;23.08;;;3.85;;
29838;SDS011;18669;53.356;-1.464;2023-03-31T02:15:51;17.05;;;3.22;;
29838;SDS011;18669;53.356;-1.464;2023-03-31T02:18:41;13.98;;;2.78;;
29838;SDS011;18669;53.356;-1.464;2023-03-31T02:21:30;11.48;;;2.75;;
29838;SDS011;18669;53.356;-1.464;2023-03-31T02:24:18;13.93;;;2.38;;
29838;SDS011;18669;53.356;-1.464;2023-03-31T02:30:01;10.60;;;2.78;;
29838;SDS011;18669;53.356;-1.464;2023-03-31T02:32:47;13.65;;;3.08;;
29838;SDS011;18669;53.356;-1.464;2023-03-31T02:35:32;11.55;;;3.53;;
29838;SDS011;18669;53.356;-1.464;2023-03-31T02:38:18;16.67;;;3.70;;
29838;SDS011;18669;53.356;-1.464;2023-03-31T02:41:03;13.93;;;3.20;;
29838;SDS011;18669;53.356;-1.464;2023-03-31T02:43:48;16.15;;;3.50;;
29838;SDS011;18669;53.356;-1.464;2023-03-31T02:46:32;12.43;;;3.60;;
29838;SDS011;18669;53.356;-1.464;2023-03-31T02:49:17;17.80;;;3.65;;
29838;SDS011;18669;53.356;-1.464;2023-03-31T03:12:56;14.25;;;3.10;;
29838;SDS011;18669;53.356;-1.464;2023-03-31T03:16:09;10.70;;;3.50;;
29838;SDS011;18669;53.356;-1.464;2023-03-31T03:19:04;11.82;;;3.70;;
29838;SDS011;18669;53.356;-1.464;2023-03-31T03:21:50;16.70;;;4.13;;
29838;SDS011;18669;53.356;-1.464;2023-03-31T03:24:35;8.43;;;4.35;;
29838;SDS011;18669;53.356;-1.464;2023-03-31T03:27:20;14.73;;;6.15;;
29838;SDS011;18669;53.356;-1.464;2023-03-31T03:30:08;11.77;;;6.63;;
29838;SDS011;18669;53.356;-1.464;2023-03-31T03:32:55;20.65;;;6.82;;
29838;SDS011;18669;53.356;-1.464;2023-03-31T03:35:42;17.73;;;7.38;;
29838;SDS011;18669;53.356;-1.464;2023-03-31T03:38:27;11.40;;;7.00;;
29838;SDS011;18669;53.356;-1.464;2023-03-31T03:41:12;11.85;;;6.57;;
29838;SDS011;18669;53.356;-1.464;2023-03-31T03:43:57;9.48;;;6.10;;
29838;SDS011;18669;53.356;-1.464;2023-03-31T03:46:41;13.68;;;7.22;;
29838;SDS011;18669;53.356;-1.464;2023-03-31T03:49:26;16.48;;;6.95;;
29838;SDS011;18669;53.356;-1.464;2023-03-31T03:52:11;8.13;;;5.78;;
29838;SDS011;18669;53.356;-1.464;2023-03-31T03:54:56;14.40;;;6.15;;
29838;SDS011;18669;53.356;-1.464;2023-03-31T03:57:41;10.73;;;6.20;;
29838;SDS011;18669;53.356;-1.464;2023-03-31T04:00:26;10.15;;;5.43;;
29838;SDS011;18669;53.356;-1.464;2023-03-31T04:03:11;9.85;;;5.45;;
29838;SDS011;18669;53.356;-1.464;2023-03-31T04:05:56;11.00;;;5.50;;
29838;SDS011;18669;53.356;-1.464;2023-03-31T04:08:41;8.23;;;5.40;;
29838;SDS011;18669;53.356;-1.464;2023-03-31T04:11:26;7.57;;;4.65;;
29838;SDS011;18669;53.356;-1.464;2023-03-31T04:14:11;9.00;;;4.35;;
29838;SDS011;18669;53.356;-1.464;2023-03-31T04:16:56;6.03;;;4.10;;
29838;SDS011;18669;53.356;-1.464;2023-03-31T04:19:41;8.30;;;3.85;;
29838;SDS011;18669;53.356;-1.464;2023-03-31T04:22:27;6.75;;;3.47;;
29838;SDS011;18669;53.356;-1.464;2023-03-31T04:25:13;7.00;;;3.15;;
29838;SDS011;18669;53.356;-1.464;2023-03-31T04:27:59;5.50;;;3.13;;
29838;SDS011;18669;53.356;-1.464;2023-03-31T04:30:44;5.68;;;2.65;;
29838;SDS011;18669;53.356;-1.464;2023-03-31T04:33:29;5.57;;;2.95;;
29838;SDS011;18669;53.356;-1.464;2023-03-31T04:36:14;5.80;;;2.85;;
29838;SDS011;18669;53.356;-1.464;2023-03-31T04:39:01;6.82;;;2.85;;
29838;SDS011;18669;53.356;-1.464;2023-03-31T04:41:46;3.45;;;2.65;;
29838;SDS011;18669;53.356;-1.464;2023-03-31T04:44:31;5.35;;;3.05;;
29838;SDS011;18669;53.356;-1.464;2023-03-31T04:47:16;11.70;;;3.25;;
29838;SDS011;18669;53.356;-1.464;2023-03-31T04:50:01;5.70;;;3.40;;
29838;SDS011;18669;53.356;-1.464;2023-03-31T04:52:46;3.53;;;2.70;;
29838;SDS011;18669;53.356;-1.464;2023-03-31T04:55:31;8.35;;;3.17;;
29838;SDS011;18669;53.356;-1.464;2023-03-31T04:58:17;4.00;;;2.33;;
29838;SDS011;18669;53.356;-1.464;2023-03-31T05:01:02;5.60;;;2.35;;
29838;SDS011;18669;53.356;-1.464;2023-03-31T05:03:49;3.35;;;2.20;;
29838;SDS011;18669;53.356;-1.464;2023-03-31T05:06:34;4.75;;;2.38;;
29838;SDS011;18669;53.356;-1.464;2023-03-31T05:09:19;3.47;;;2.55;;
29838;SDS011;18669;53.356;-1.464;2023-03-31T05:12:04;3.55;;;2.20;;
29838;SDS011;18669;53.356;-1.464;2023-03-31T05:14:49;4.88;;;2.78;;
29838;SDS011;18669;53.356;-1.464;2023-03-31T05:17:34;4.32;;;2.67;;
29838;SDS011;18669;53.356;-1.464;2023-03-31T05:20:19;5.40;;;3.05;;
29838;SDS011;18669;53.356;-1.464;2023-03-31T05:23:04;7.88;;;3.35;;
29838;SDS011;18669;53.356;-1.464;2023-03-31T05:25:50;5.55;;;3.15;;
29838;SDS011;18669;53.356;-1.464;2023-03-31T05:28:34;8.00;;;3.30;;
29838;SDS011;18669;53.356;-1.464;2023-03-31T05:31:20;6.28;;;3.10;;
29838;SDS011;18669;53.356;-1.464;2023-03-31T05:34:05;6.63;;;3.70;;
29838;SDS011;18669;53.356;-1.464;2023-03-31T05:36:50;6.30;;;3.28;;
29838;SDS011;18669;53.356;-1.464;2023-03-31T05:39:37;5.10;;;3.28;;
29838;SDS011;18669;53.356;-1.464;2023-03-31T05:42:21;4.38;;;3.50;;
29838;SDS011;18669;53.356;-1.464;2023-03-31T05:45:06;5.63;;;3.30;;
29838;SDS011;18669;53.356;-1.464;2023-03-31T05:47:52;9.70;;;3.45;;
29838;SDS011;18669;53.356;-1.464;2023-03-31T05:50:37;9.07;;;3.90;;
29838;SDS011;18669;53.356;-1.464;2023-03-31T05:53:22;6.13;;;4.07;;
29838;SDS011;18669;53.356;-1.464;2023-03-31T05:56:06;6.03;;;3.70;;
29838;SDS011;18669;53.356;-1.464;2023-03-31T05:58:52;9.40;;;4.03;;
29838;SDS011;18669;53.356;-1.464;2023-03-31T06:01:37;4.03;;;3.58;;
29838;SDS011;18669;53.356;-1.464;2023-03-31T06:04:21;7.22;;;5.43;;
29838;SDS011;18669;53.356;-1.464;2023-03-31T06:07:07;7.97;;;3.72;;
29838;SDS011;18669;53.356;-1.464;2023-03-31T06:09:53;7.63;;;3.85;;
29838;SDS011;18669;53.356;-1.464;2023-03-31T06:12:38;6.72;;;3.97;;
29838;SDS011;18669;53.356;-1.464;2023-03-31T06:15:23;7.25;;;4.07;;
29838;SDS011;18669;53.356;-1.464;2023-03-31T06:18:07;5.60;;;4.20;;
29838;SDS011;18669;53.356;-1.464;2023-03-31T06:20:54;8.25;;;3.95;;
29838;SDS011;18669;53.356;-1.464;2023-03-31T06:23:39;6.95;;;4.38;;
29838;SDS011;18669;53.356;-1.464;2023-03-31T06:26:24;9.07;;;4.50;;
29838;SDS011;18669;53.356;-1.464;2023-03-31T06:29:09;8.90;;;5.05;;
29838;SDS011;18669;53.356;-1.464;2023-03-31T06:31:54;6.07;;;3.70;;
29838;SDS011;18669;53.356;-1.464;2023-03-31T06:34:38;7.65;;;3.83;;
29838;SDS011;18669;53.356;-1.464;2023-03-31T06:37:23;7.20;;;4.50;;
29838;SDS011;18669;53.356;-1.464;2023-03-31T06:40:09;6.90;;;4.45;;
29838;SDS011;18669;53.356;-1.464;2023-03-31T06:42:54;11.80;;;4.70;;
29838;SDS011;18669;53.356;-1.464;2023-03-31T06:45:39;7.80;;;4.85;;
29838;SDS011;18669;53.356;-1.464;2023-03-31T06:48:24;9.02;;;4.60;;
29838;SDS011;18669;53.356;-1.464;2023-03-31T06:51:10;6.18;;;4.43;;
29838;SDS011;18669;53.356;-1.464;2023-03-31T06:53:55;6.63;;;4.68;;
29838;SDS011;18669;53.356;-1.464;2023-03-31T06:56:40;10.63;;;5.15;;
29838;SDS011;18669;53.356;-1.464;2023-03-31T06:59:25;6.70;;;4.65;;
29838;SDS011;18669;53.356;-1.464;2023-03-31T07:02:09;9.02;;;4.38;;
29838;SDS011;18669;53.356;-1.464;2023-03-31T07:04:54;6.38;;;4.45;;
29838;SDS011;18669;53.356;-1.464;2023-03-31T07:07:39;6.03;;;4.32;;
29838;SDS011;18669;53.356;-1.464;2023-03-31T07:10:26;9.48;;;4.60;;
29838;SDS011;18669;53.356;-1.464;2023-03-31T07:13:16;7.38;;;4.60;;
29838;SDS011;18669;53.356;-1.464;2023-03-31T07:16:01;8.30;;;4.70;;
29838;SDS011;18669;53.356;-1.464;2023-03-31T07:18:48;9.75;;;5.20;;
29838;SDS011;18669;53.356;-1.464;2023-03-31T07:21:33;11.10;;;5.78;;
29838;SDS011;18669;53.356;-1.464;2023-03-31T07:24:18;12.68;;;5.20;;
29838;SDS011;18669;53.356;-1.464;2023-03-31T07:27:03;12.05;;;4.47;;
29838;SDS011;18669;53.356;-1.464;2023-03-31T07:29:48;8.18;;;4.93;;
29838;SDS011;18669;53.356;-1.464;2023-03-31T07:32:34;10.15;;;5.10;;
29838;SDS011;18669;53.356;-1.464;2023-03-31T07:35:23;8.07;;;4.70;;
29838;SDS011;18669;53.356;-1.464;2023-03-31T07:38:08;7.38;;;4.50;;
29838;SDS011;18669;53.356;-1.464;2023-03-31T07:40:54;9.52;;;4.47;;
29838;SDS011;18669;53.356;-1.464;2023-03-31T07:43:39;8.15;;;3.88;;
29838;SDS011;18669;53.356;-1.464;2023-03-31T07:46:25;7.35;;;3.75;;
29838;SDS011;18669;53.356;-1.464;2023-03-31T07:51:58;4.50;;;3.50;;
29838;SDS011;18669;53.356;-1.464;2023-03-31T07:54:44;7.65;;;3.55;;
29838;SDS011;18669;53.356;-1.464;2023-03-31T07:57:31;4.63;;;2.97;;
29838;SDS011;18669;53.356;-1.464;2023-03-31T08:00:16;7.10;;;3.28;;
29838;SDS011;18669;53.356;-1.464;2023-03-31T08:03:01;7.15;;;3.20;;
29838;SDS011;18669;53.356;-1.464;2023-03-31T08:05:46;5.20;;;3.00;;
29838;SDS011;18669;53.356;-1.464;2023-03-31T08:08:31;6.03;;;3.22;;
29838;SDS011;18669;53.356;-1.464;2023-03-31T08:11:16;4.57;;;3.15;;
29838;SDS011;18669;53.356;-1.464;2023-03-31T08:14:01;4.85;;;3.00;;
29838;SDS011;18669;53.356;-1.464;2023-03-31T08:16:46;5.85;;;3.17;;
29838;SDS011;18669;53.356;-1.464;2023-03-31T08:19:31;5.55;;;3.03;;
29838;SDS011;18669;53.356;-1.464;2023-03-31T08:22:15;5.18;;;3.17;;
29838;SDS011;18669;53.356;-1.464;2023-03-31T08:25:01;5.40;;;2.75;;
29838;SDS011;18669;53.356;-1.464;2023-03-31T08:27:46;3.55;;;2.30;;
29838;SDS011;18669;53.356;-1.464;2023-03-31T08:30:35;6.07;;;2.40;;
29838;SDS011;18669;53.356;-1.464;2023-03-31T08:33:20;4.80;;;2.30;;
29838;SDS011;18669;53.356;-1.464;2023-03-31T08:36:06;3.22;;;2.00;;
29838;SDS011;18669;53.356;-1.464;2023-03-31T08:38:54;4.60;;;2.35;;
29838;SDS011;18669;53.356;-1.464;2023-03-31T08:42:14;4.38;;;2.33;;
29838;SDS011;18669;53.356;-1.464;2023-03-31T08:44:57;5.70;;;2.80;;
29838;SDS011;18669;53.356;-1.464;2023-03-31T08:47:46;2.78;;;2.20;;
29838;SDS011;18669;53.356;-1.464;2023-03-31T08:50:35;5.78;;;2.90;;
29838;SDS011;18669;53.356;-1.464;2023-03-31T08:53:30;5.05;;;2.80;;
29838;SDS011;18669;53.356;-1.464;2023-03-31T08:56:19;4.60;;;2.83;;
29838;SDS011;18669;53.356;-1.464;2023-03-31T08:59:11;2.92;;;2.63;;
29838;SDS011;18669;53.356;-1.464;2023-03-31T09:15:21;3.33;;;2.30;;
29838;SDS011;18669;53.356;-1.464;2023-03-31T09:17:45;6.07;;;3.40;;
29838;SDS011;18669;53.356;-1.464;2023-03-31T09:20:36;4.13;;;3.30;;
29838;SDS011;18669;53.356;-1.464;2023-03-31T09:23:34;9.18;;;3.67;;
29838;SDS011;18669;53.356;-1.464;2023-03-31T09:26:28;3.58;;;3.22;;
29838;SDS011;18669;53.356;-1.464;2023-03-31T09:32:23;4.55;;;2.83;;
29838;SDS011;18669;53.356;-1.464;2023-03-31T09:35:13;5.55;;;3.20;;
29838;SDS011;18669;53.356;-1.464;2023-03-31T09:38:01;6.25;;;3.90;;
29838;SDS011;18669;53.356;-1.464;2023-03-31T09:40:46;8.68;;;3.25;;
29838;SDS011;18669;53.356;-1.464;2023-03-31T09:43:31;8.43;;;3.15;;
29838;SDS011;18669;53.356;-1.464;2023-03-31T09:46:28;7.32;;;3.35;;
29838;SDS011;18669;53.356;-1.464;2023-03-31T09:49:16;5.75;;;3.70;;
29838;SDS011;18669;53.356;-1.464;2023-03-31T09:52:05;8.63;;;4.80;;
29838;SDS011;18669;53.356;-1.464;2023-03-31T09:55:09;10.63;;;6.28;;
29838;SDS011;18669;53.356;-1.464;2023-03-31T09:58:20;11.48;;;6.15;;
29838;SDS011;18669;53.356;-1.464;2023-03-31T10:01:07;13.75;;;8.23;;
29838;SDS011;18669;53.356;-1.464;2023-03-31T10:03:54;17.50;;;9.15;;
29838;SDS011;18669;53.356;-1.464;2023-03-31T10:06:39;19.55;;;10.93;;
29838;SDS011;18669;53.356;-1.464;2023-03-31T10:09:26;15.20;;;9.98;;
29838;SDS011;18669;53.356;-1.464;2023-03-31T10:12:15;12.80;;;7.57;;
29838;SDS011;18669;53.356;-1.464;2023-03-31T10:18:20;11.65;;;7.13;;
29838;SDS011;18669;53.356;-1.464;2023-03-31T10:21:20;11.85;;;8.48;;
29838;SDS011;18669;53.356;-1.464;2023-03-31T10:24:08;10.40;;;7.70;;
29838;SDS011;18669;53.356;-1.464;2023-03-31T10:26:54;10.27;;;6.95;;
29838;SDS011;18669;53.356;-1.464;2023-03-31T10:29:40;11.88;;;6.32;;
29838;SDS011;18669;53.356;-1.464;2023-03-31T10:32:29;11.57;;;6.38;;
29838;SDS011;18669;53.356;-1.464;2023-03-31T10:38:23;11.23;;;6.82;;
29838;SDS011;18669;53.356;-1.464;2023-03-31T10:41:28;9.75;;;6.53;;
29838;SDS011;18669;53.356;-1.464;2023-03-31T10:47:21;14.70;;;7.40;;
29838;SDS011;18669;53.356;-1.464;2023-03-31T10:50:13;9.52;;;6.80;;
29838;SDS011;18669;53.356;-1.464;2023-03-31T10:53:06;11.35;;;7.90;;
29838;SDS011;18669;53.356;-1.464;2023-03-31T10:59:27;11.63;;;7.35;;
29838;SDS011;18669;53.356;-1.464;2023-03-31T11:05:24;13.25;;;8.93;;
29838;SDS011;18669;53.356;-1.464;2023-03-31T11:15:16;21.63;;;11.68;;
29838;SDS011;18669;53.356;-1.464;2023-03-31T11:30:30;19.40;;;12.07;;
29838;SDS011;18669;53.356;-1.464;2023-03-31T11:39:38;15.18;;;8.05;;
29838;SDS011;18669;53.356;-1.464;2023-03-31T11:42:41;13.48;;;7.93;;
29838;SDS011;18669;53.356;-1.464;2023-03-31T11:45:35;8.93;;;5.22;;
29838;SDS011;18669;53.356;-1.464;2023-03-31T11:48:37;6.95;;;4.30;;
29838;SDS011;18669;53.356;-1.464;2023-03-31T11:51:41;3.35;;;3.05;;
29838;SDS011;18669;53.356;-1.464;2023-03-31T11:57:43;5.53;;;3.53;;
29838;SDS011;18669;53.356;-1.464;2023-03-31T12:06:40;6.57;;;3.60;;
29838;SDS011;18669;53.356;-1.464;2023-03-31T12:09:49;7.53;;;4.18;;
29838;SDS011;18669;53.356;-1.464;2023-03-31T12:15:53;7.28;;;4.45;;
29838;SDS011;18669;53.356;-1.464;2023-03-31T12:21:41;5.32;;;3.55;;
29838;SDS011;18669;53.356;-1.464;2023-03-31T12:24:31;4.70;;;4.18;;
29838;SDS011;18669;53.356;-1.464;2023-03-31T12:30:19;13.85;;;5.65;;
29838;SDS011;18669;53.356;-1.464;2023-03-31T12:36:24;5.43;;;3.80;;
29838;SDS011;18669;53.356;-1.464;2023-03-31T12:48:37;6.47;;;3.67;;
29838;SDS011;18669;53.356;-1.464;2023-03-31T12:57:19;6.53;;;3.75;;
29838;SDS011;18669;53.356;-1.464;2023-03-31T13:11:57;6.40;;;4.63;;
29838;SDS011;18669;53.356;-1.464;2023-03-31T13:14:43;4.72;;;4.20;;
29838;SDS011;18669;53.356;-1.464;2023-03-31T13:23:19;7.75;;;6.85;;
29838;SDS011;18669;53.356;-1.464;2023-03-31T13:26:32;8.63;;;5.60;;
29838;SDS011;18669;53.356;-1.464;2023-03-31T13:34:56;7.60;;;5.60;;
29838;SDS011;18669;53.356;-1.464;2023-03-31T13:41:14;10.82;;;6.80;;
29838;SDS011;18669;53.356;-1.464;2023-03-31T13:53:44;12.82;;;6.43;;
29838;SDS011;18669;53.356;-1.464;2023-03-31T14:06:24;20.85;;;12.00;;
29838;SDS011;18669;53.356;-1.464;2023-03-31T14:09:30;17.92;;;11.25;;
29838;SDS011;18669;53.356;-1.464;2023-03-31T14:15:16;22.55;;;11.60;;
29838;SDS011;18669;53.356;-1.464;2023-03-31T14:18:03;16.90;;;9.45;;
29838;SDS011;18669;53.356;-1.464;2023-03-31T14:20:54;14.23;;;9.75;;
29838;SDS011;18669;53.356;-1.464;2023-03-31T14:29:52;12.13;;;7.80;;
29838;SDS011;18669;53.356;-1.464;2023-03-31T14:33:12;16.02;;;8.15;;
29838;SDS011;18669;53.356;-1.464;2023-03-31T14:36:20;15.60;;;8.52;;
29838;SDS011;18669;53.356;-1.464;2023-03-31T14:39:11;14.07;;;8.02;;
29838;SDS011;18669;53.356;-1.464;2023-03-31T14:42:03;19.10;;;7.63;;
29838;SDS011;18669;53.356;-1.464;2023-03-31T14:44:54;16.13;;;9.57;;
29838;SDS011;18669;53.356;-1.464;2023-03-31T14:47:41;10.20;;;7.03;;
29838;SDS011;18669;53.356;-1.464;2023-03-31T14:50:30;15.73;;;7.85;;
29838;SDS011;18669;53.356;-1.464;2023-03-31T14:53:22;11.45;;;8.60;;
29838;SDS011;18669;53.356;-1.464;2023-03-31T14:56:19;15.48;;;8.57;;
29838;SDS011;18669;53.356;-1.464;2023-03-31T14:59:09;12.98;;;8.45;;
29838;SDS011;18669;53.356;-1.464;2023-03-31T15:01:58;11.65;;;7.57;;
29838;SDS011;18669;53.356;-1.464;2023-03-31T15:04:45;14.15;;;7.32;;
29838;SDS011;18669;53.356;-1.464;2023-03-31T15:07:32;14.13;;;8.32;;
29838;SDS011;18669;53.356;-1.464;2023-03-31T15:10:19;15.38;;;8.57;;
29838;SDS011;18669;53.356;-1.464;2023-03-31T15:13:08;12.60;;;8.40;;
29838;SDS011;18669;53.356;-1.464;2023-03-31T15:15:55;14.25;;;8.45;;
29838;SDS011;18669;53.356;-1.464;2023-03-31T15:18:40;15.38;;;8.63;;
29838;SDS011;18669;53.356;-1.464;2023-03-31T15:21:25;12.60;;;8.57;;
29838;SDS011;18669;53.356;-1.464;2023-03-31T15:24:12;17.23;;;8.65;;
29838;SDS011;18669;53.356;-1.464;2023-03-31T15:27:00;13.50;;;8.73;;
29838;SDS011;18669;53.356;-1.464;2023-03-31T15:29:58;12.52;;;7.75;;
29838;SDS011;18669;53.356;-1.464;2023-03-31T15:32:45;14.10;;;8.50;;
29838;SDS011;18669;53.356;-1.464;2023-03-31T15:35:31;13.60;;;7.15;;
29838;SDS011;18669;53.356;-1.464;2023-03-31T15:41:02;14.25;;;8.43;;
29838;SDS011;18669;53.356;-1.464;2023-03-31T15:50:16;12.68;;;7.03;;
29838;SDS011;18669;53.356;-1.464;2023-03-31T15:53:18;8.57;;;4.57;;
29838;SDS011;18669;53.356;-1.464;2023-03-31T15:56:33;8.98;;;5.22;;
29838;SDS011;18669;53.356;-1.464;2023-03-31T15:59:26;7.80;;;5.20;;
29838;SDS011;18669;53.356;-1.464;2023-03-31T16:02:15;10.35;;;5.20;;
29838;SDS011;18669;53.356;-1.464;2023-03-31T16:05:03;7.63;;;4.90;;
29838;SDS011;18669;53.356;-1.464;2023-03-31T16:07:48;8.75;;;5.40;;
29838;SDS011;18669;53.356;-1.464;2023-03-31T16:10:32;8.55;;;5.72;;
29838;SDS011;18669;53.356;-1.464;2023-03-31T16:13:18;9.38;;;5.63;;
29838;SDS011;18669;53.356;-1.464;2023-03-31T16:16:10;5.47;;;4.85;;
29838;SDS011;18669;53.356;-1.464;2023-03-31T16:19:02;10.38;;;5.50;;
29838;SDS011;18669;53.356;-1.464;2023-03-31T16:21:53;8.30;;;5.97;;
29838;SDS011;18669;53.356;-1.464;2023-03-31T16:24:42;11.88;;;6.13;;
29838;SDS011;18669;53.356;-1.464;2023-03-31T16:27:27;10.45;;;6.72;;
29838;SDS011;18669;53.356;-1.464;2023-03-31T16:30:13;10.60;;;6.68;;
29838;SDS011;18669;53.356;-1.464;2023-03-31T16:33:08;8.95;;;7.13;;
29838;SDS011;18669;53.356;-1.464;2023-03-31T16:36:00;9.32;;;6.65;;
29838;SDS011;18669;53.356;-1.464;2023-03-31T16:39:05;10.13;;;6.93;;
29838;SDS011;18669;53.356;-1.464;2023-03-31T16:41:53;8.57;;;6.32;;
29838;SDS011;18669;53.356;-1.464;2023-03-31T16:44:41;17.00;;;6.63;;
29838;SDS011;18669;53.356;-1.464;2023-03-31T16:47:26;8.82;;;6.07;;
29838;SDS011;18669;53.356;-1.464;2023-03-31T16:50:11;13.45;;;6.20;;
29838;SDS011;18669;53.356;-1.464;2023-03-31T16:52:57;9.90;;;5.90;;
29838;SDS011;18669;53.356;-1.464;2023-03-31T16:55:41;11.63;;;6.28;;
29838;SDS011;18669;53.356;-1.464;2023-03-31T16:58:26;10.00;;;5.78;;
29838;SDS011;18669;53.356;-1.464;2023-03-31T17:01:12;12.00;;;6.50;;
29838;SDS011;18669;53.356;-1.464;2023-03-31T17:03:57;9.52;;;5.50;;
29838;SDS011;18669;53.356;-1.464;2023-03-31T17:06:42;7.45;;;5.72;;
29838;SDS011;18669;53.356;-1.464;2023-03-31T17:09:27;9.57;;;5.80;;
29838;SDS011;18669;53.356;-1.464;2023-03-31T17:12:16;9.25;;;5.60;;
29838;SDS011;18669;53.356;-1.464;2023-03-31T17:15:01;8.60;;;5.72;;
29838;SDS011;18669;53.356;-1.464;2023-03-31T17:17:48;9.30;;;5.50;;
29838;SDS011;18669;53.356;-1.464;2023-03-31T17:20:33;9.25;;;5.10;;
29838;SDS011;18669;53.356;-1.464;2023-03-31T17:23:19;8.82;;;5.13;;
29838;SDS011;18669;53.356;-1.464;2023-03-31T17:26:04;10.52;;;5.57;;
29838;SDS011;18669;53.356;-1.464;2023-03-31T17:28:53;9.40;;;5.60;;
29838;SDS011;18669;53.356;-1.464;2023-03-31T17:31:39;6.97;;;5.78;;
29838;SDS011;18669;53.356;-1.464;2023-03-31T17:34:24;9.70;;;6.25;;
29838;SDS011;18669;53.356;-1.464;2023-03-31T17:37:09;11.40;;;6.45;;
29838;SDS011;18669;53.356;-1.464;2023-03-31T17:39:57;8.30;;;5.78;;
29838;SDS011;18669;53.356;-1.464;2023-03-31T17:42:42;9.27;;;6.50;;
29838;SDS011;18669;53.356;-1.464;2023-03-31T17:45:28;10.43;;;6.05;;
29838;SDS011;18669;53.356;-1.464;2023-03-31T17:48:16;8.77;;;5.43;;
29838;SDS011;18669;53.356;-1.464;2023-03-31T17:51:08;8.80;;;5.63;;
29838;SDS011;18669;53.356;-1.464;2023-03-31T17:53:56;11.02;;;5.60;;
29838;SDS011;18669;53.356;-1.464;2023-03-31T17:56:44;9.20;;;5.50;;
29838;SDS011;18669;53.356;-1.464;2023-03-31T17:59:28;9.68;;;5.47;;
29838;SDS011;18669;53.356;-1.464;2023-03-31T18:02:13;8.90;;;6.13;;
29838;SDS011;18669;53.356;-1.464;2023-03-31T18:04:58;9.80;;;6.05;;
29838;SDS011;18669;53.356;-1.464;2023-03-31T18:07:43;6.93;;;5.03;;
29838;SDS011;18669;53.356;-1.464;2023-03-31T18:10:28;10.05;;;5.85;;
29838;SDS011;18669;53.356;-1.464;2023-03-31T18:13:14;10.27;;;6.60;;
29838;SDS011;18669;53.356;-1.464;2023-03-31T18:15:59;13.05;;;5.65;;
29838;SDS011;18669;53.356;-1.464;2023-03-31T18:18:52;14.23;;;6.55;;
29838;SDS011;18669;53.356;-1.464;2023-03-31T18:21:39;9.73;;;6.78;;
29838;SDS011;18669;53.356;-1.464;2023-03-31T18:24:24;10.73;;;6.72;;
29838;SDS011;18669;53.356;-1.464;2023-03-31T18:27:09;12.48;;;6.53;;
29838;SDS011;18669;53.356;-1.464;2023-03-31T18:29:55;10.07;;;5.80;;
29838;SDS011;18669;53.356;-1.464;2023-03-31T18:32:39;8.80;;;5.60;;
29838;SDS011;18669;53.356;-1.464;2023-03-31T18:35:25;9.63;;;5.55;;
29838;SDS011;18669;53.356;-1.464;2023-03-31T18:38:10;8.75;;;5.68;;
29838;SDS011;18669;53.356;-1.464;2023-03-31T18:40:55;8.80;;;5.55;;
29838;SDS011;18669;53.356;-1.464;2023-03-31T18:43:40;10.38;;;5.88;;
29838;SDS011;18669;53.356;-1.464;2023-03-31T18:46:25;7.90;;;5.13;;
29838;SDS011;18669;53.356;-1.464;2023-03-31T18:49:10;9.18;;;5.07;;
29838;SDS011;18669;53.356;-1.464;2023-03-31T18:51:56;8.70;;;5.15;;
29838;SDS011;18669;53.356;-1.464;2023-03-31T18:54:41;12.35;;;5.22;;
29838;SDS011;18669;53.356;-1.464;2023-03-31T18:57:27;7.47;;;4.50;;
29838;SDS011;18669;53.356;-1.464;2023-03-31T19:00:12;8.50;;;4.55;;
29838;SDS011;18669;53.356;-1.464;2023-03-31T19:02:57;6.40;;;4.43;;
29838;SDS011;18669;53.356;-1.464;2023-03-31T19:05:42;7.07;;;4.47;;
29838;SDS011;18669;53.356;-1.464;2023-03-31T19:08:28;11.45;;;5.47;;
29838;SDS011;18669;53.356;-1.464;2023-03-31T19:11:15;10.93;;;5.25;;
29838;SDS011;18669;53.356;-1.464;2023-03-31T19:14:00;11.70;;;6.20;;
29838;SDS011;18669;53.356;-1.464;2023-03-31T19:16:45;7.65;;;5.72;;
29838;SDS011;18669;53.356;-1.464;2023-03-31T19:19:29;10.68;;;6.13;;
29838;SDS011;18669;53.356;-1.464;2023-03-31T19:22:14;7.82;;;5.68;;
29838;SDS011;18669;53.356;-1.464;2023-03-31T19:24:59;8.18;;;6.15;;
29838;SDS011;18669;53.356;-1.464;2023-03-31T19:27:44;9.23;;;5.95;;
29838;SDS011;18669;53.356;-1.464;2023-03-31T19:30:29;8.52;;;6.32;;
29838;SDS011;18669;53.356;-1.464;2023-03-31T19:33:14;9.52;;;6.47;;
29838;SDS011;18669;53.356;-1.464;2023-03-31T19:35:59;10.05;;;6.20;;
29838;SDS011;18669;53.356;-1.464;2023-03-31T19:38:44;6.75;;;5.63;;
29838;SDS011;18669;53.356;-1.464;2023-03-31T19:41:29;13.18;;;7.10;;
29838;SDS011;18669;53.356;-1.464;2023-03-31T19:44:14;11.60;;;6.88;;
29838;SDS011;18669;53.356;-1.464;2023-03-31T19:46:59;9.57;;;6.50;;
29838;SDS011;18669;53.356;-1.464;2023-03-31T19:49:44;8.18;;;5.95;;
29838;SDS011;18669;53.356;-1.464;2023-03-31T19:52:29;8.18;;;5.85;;
29838;SDS011;18669;53.356;-1.464;2023-03-31T19:55:14;8.25;;;4.85;;
29838;SDS011;18669;53.356;-1.464;2023-03-31T19:57:59;10.63;;;5.47;;
29838;SDS011;18669;53.356;-1.464;2023-03-31T20:00:44;9.63;;;5.20;;
29838;SDS011;18669;53.356;-1.464;2023-03-31T20:03:29;11.98;;;5.78;;
29838;SDS011;18669;53.356;-1.464;2023-03-31T20:06:14;9.73;;;6.18;;
29838;SDS011;18669;53.356;-1.464;2023-03-31T20:09:00;10.85;;;6.28;;
29838;SDS011;18669;53.356;-1.464;2023-03-31T20:11:45;10.02;;;5.93;;